createdAt,value
2019-02-02T00:00:58.771Z,24.07
2019-02-02T00:03:25.736Z,24.00
2019-02-02T00:05:52.680Z,23.20
2019-02-02T00:08:19.611Z,22.50
2019-02-02T00:10:46.592Z,23.30
2019-02-02T00:13:13.539Z,22.90
2019-02-02T00:15:40.456Z,23.57
2019-02-02T00:18:07.426Z,21.77
2019-02-02T00:20:34.370Z,24.47
2019-02-02T00:23:01.316Z,23.40
2019-02-02T00:25:28.267Z,23.77
2019-02-02T00:27:55.219Z,24.70
2019-02-02T00:30:22.145Z,24.27
2019-02-02T00:32:49.097Z,23.93
2019-02-02T00:35:16.039Z,28.63
2019-02-02T00:37:43.015Z,23.60
2019-02-02T00:40:09.999Z,23.17
2019-02-02T00:42:36.960Z,23.83
2019-02-02T00:45:05.409Z,22.03
2019-02-02T00:47:36.610Z,23.23
2019-02-02T00:50:03.767Z,20.80
2019-02-02T00:52:30.688Z,25.83
2019-02-02T00:54:57.644Z,24.50
2019-02-02T00:57:24.593Z,24.87
2019-02-02T00:59:51.541Z,25.80
2019-02-02T01:02:18.487Z,24.90
2019-02-02T01:04:45.438Z,25.50
2019-02-02T01:07:12.378Z,25.43
2019-02-02T01:09:39.345Z,24.53
2019-02-02T01:12:06.298Z,23.63
2019-02-02T01:14:33.238Z,21.73
2019-02-02T01:17:00.183Z,23.10
2019-02-02T01:19:27.121Z,25.43
2019-02-02T01:21:54.045Z,24.13
2019-02-02T01:24:20.997Z,27.83
2019-02-02T01:26:47.927Z,27.00
2019-02-02T01:29:14.947Z,26.67
2019-02-02T01:31:41.979Z,24.97
2019-02-02T01:34:08.919Z,23.60
2019-02-02T01:36:35.893Z,24.33
2019-02-02T01:39:04.006Z,24.13
2019-02-02T01:41:30.946Z,25.83
2019-02-02T01:43:57.913Z,26.67
2019-02-02T01:46:24.893Z,28.07
2019-02-02T01:48:52.125Z,25.00
2019-02-02T01:51:19.064Z,27.40
2019-02-02T01:53:46.024Z,26.00
2019-02-02T01:56:12.989Z,23.33
2019-02-02T01:58:39.915Z,25.00
2019-02-02T02:01:06.863Z,25.00
2019-02-02T02:03:33.808Z,23.33
2019-02-02T02:06:00.793Z,25.00
2019-02-02T02:08:27.721Z,22.63
2019-02-02T02:10:54.707Z,23.17
2019-02-02T02:13:21.697Z,22.03
2019-02-02T02:15:48.655Z,22.50
2019-02-02T02:18:15.598Z,24.80
2019-02-02T02:20:42.555Z,23.77
2019-02-02T02:23:09.517Z,23.20
2019-02-02T02:25:36.463Z,24.23
2019-02-02T02:28:03.426Z,25.87
2019-02-02T02:30:30.384Z,24.87
2019-02-02T02:32:57.318Z,24.70
2019-02-02T02:35:24.257Z,22.10
2019-02-02T02:37:51.225Z,24.53
2019-02-02T02:40:20.179Z,22.03
2019-02-02T02:42:47.157Z,25.03
2019-02-02T02:45:14.183Z,23.50
2019-02-02T02:47:41.097Z,23.27
2019-02-02T02:50:11.761Z,24.20
2019-02-02T02:52:38.700Z,27.83
2019-02-02T02:55:06.997Z,22.67
2019-02-02T02:57:33.943Z,21.33
2019-02-02T03:00:00.902Z,24.27
2019-02-02T03:02:27.828Z,25.53
2019-02-02T03:04:54.769Z,25.90
2019-02-02T03:07:21.729Z,23.13
2019-02-02T03:09:48.674Z,25.00
2019-02-02T03:12:15.614Z,25.17
2019-02-02T03:14:42.577Z,26.00
2019-02-02T03:17:09.498Z,25.10
2019-02-02T03:19:36.446Z,28.20
2019-02-02T03:22:03.416Z,23.57
2019-02-02T03:24:30.360Z,24.30
2019-02-02T03:26:57.297Z,24.47
2019-02-02T03:29:24.245Z,26.87
2019-02-02T03:31:51.382Z,27.03
2019-02-02T03:34:18.153Z,27.97
2019-02-02T03:36:45.080Z,25.60
2019-02-02T03:39:12.021Z,25.97
2019-02-02T03:41:38.976Z,26.10
2019-02-02T03:44:05.933Z,25.00
2019-02-02T03:46:32.870Z,23.80
2019-02-02T03:48:59.808Z,22.90
2019-02-02T03:51:27.286Z,22.10
2019-02-02T03:53:54.212Z,23.17
2019-02-02T03:56:21.159Z,26.63
2019-02-02T03:58:48.100Z,25.50
2019-02-02T04:01:15.047Z,23.27
2019-02-02T04:03:41.957Z,21.50
2019-02-02T04:06:08.900Z,21.90
2019-02-02T04:08:35.811Z,21.13
2019-02-02T04:11:02.766Z,21.17
2019-02-02T04:13:29.704Z,23.60
2019-02-02T04:15:56.679Z,24.20
2019-02-02T04:18:23.587Z,22.77
2019-02-02T04:20:50.544Z,21.97
2019-02-02T04:23:17.477Z,19.20
2019-02-02T04:25:44.408Z,22.70
2019-02-02T04:28:11.343Z,24.00
2019-02-02T04:30:38.275Z,21.63
2019-02-02T04:33:05.202Z,21.17
2019-02-02T04:35:32.165Z,21.23
2019-02-02T04:37:59.087Z,22.60
2019-02-02T04:40:26.012Z,22.10
2019-02-02T04:42:52.957Z,19.27
2019-02-02T04:45:19.876Z,20.83
2019-02-02T04:47:46.804Z,20.73
2019-02-02T04:50:14.673Z,22.27
2019-02-02T04:52:43.100Z,21.07
2019-02-02T04:55:11.016Z,24.23
2019-02-02T04:57:37.954Z,23.30
2019-02-02T05:00:07.033Z,22.00
2019-02-02T05:02:33.977Z,20.80
2019-02-02T05:05:00.927Z,20.60
2019-02-02T05:07:27.860Z,21.87
2019-02-02T05:09:54.792Z,22.43
2019-02-02T05:12:21.755Z,19.20
2019-02-02T05:14:48.700Z,20.07
2019-02-02T05:17:15.647Z,20.00
2019-02-02T05:19:42.612Z,22.27
2019-02-02T05:22:09.553Z,21.13
2019-02-02T05:24:36.480Z,22.03
2019-02-02T05:27:03.493Z,20.70
2019-02-02T05:29:40.711Z,24.13
2019-02-02T05:31:57.368Z,22.63
2019-02-02T05:34:24.301Z,23.27
2019-02-02T05:36:51.237Z,23.10
2019-02-02T05:39:18.159Z,25.43
2019-02-02T05:41:45.108Z,24.10
2019-02-02T05:44:12.062Z,22.37
2019-02-02T05:46:38.992Z,22.73
2019-02-02T05:49:05.939Z,23.37
2019-02-02T05:51:32.884Z,22.47
2019-02-02T05:54:00.267Z,21.83
2019-02-02T05:56:27.353Z,23.13
2019-02-02T05:58:54.169Z,22.87
2019-02-02T06:01:21.112Z,21.80
2019-02-02T06:03:48.068Z,23.53
2019-02-02T06:06:14.991Z,21.93
2019-02-02T06:08:41.924Z,20.23
2019-02-02T06:11:08.893Z,21.27
2019-02-02T06:13:35.831Z,22.90
2019-02-02T06:16:02.751Z,22.43
2019-02-02T06:18:29.690Z,20.30
2019-02-02T06:20:56.620Z,20.23
2019-02-02T06:23:23.551Z,22.27
2019-02-02T06:25:50.488Z,19.67
2019-02-02T06:28:17.418Z,21.93
2019-02-02T06:30:44.352Z,22.07
2019-02-02T06:33:11.298Z,23.13
2019-02-02T06:35:38.217Z,22.50
2019-02-02T06:38:05.144Z,21.43
2019-02-02T06:40:32.088Z,21.73
2019-02-02T06:42:59.025Z,20.40
2019-02-02T06:45:29.115Z,20.13
2019-02-02T06:47:56.090Z,18.57
2019-02-02T06:50:23.008Z,17.50
2019-02-02T06:52:49.988Z,20.93
2019-02-02T06:55:19.614Z,20.33
2019-02-02T06:57:46.530Z,19.47
2019-02-02T07:00:16.498Z,19.57
2019-02-02T07:02:43.156Z,19.63
2019-02-02T07:05:09.968Z,21.17
2019-02-02T07:07:36.903Z,19.43
2019-02-02T07:10:04.976Z,19.10
2019-02-02T07:12:31.900Z,35.53
2019-02-02T07:14:58.827Z,20.97
2019-02-02T07:17:25.793Z,21.97
2019-02-02T07:19:52.723Z,21.47
2019-02-02T07:22:19.644Z,19.37
2019-02-02T07:24:46.599Z,18.87
2019-02-02T07:27:13.565Z,18.53
2019-02-02T07:29:40.623Z,17.50
2019-02-02T07:32:07.610Z,21.20
2019-02-02T07:34:34.535Z,19.90
2019-02-02T07:37:01.485Z,18.57
2019-02-02T07:39:28.444Z,17.67
2019-02-02T07:41:55.381Z,18.50
2019-02-02T07:44:22.353Z,20.80
2019-02-02T07:46:49.295Z,18.87
2019-02-02T07:49:16.228Z,18.53
2019-02-02T07:51:43.152Z,17.43
2019-02-02T07:54:10.104Z,17.70
2019-02-02T07:56:37.264Z,19.83
2019-02-02T07:59:04.201Z,21.20
2019-02-02T08:01:31.140Z,22.20
2019-02-02T08:03:58.089Z,19.33
2019-02-02T08:06:25.016Z,17.27
2019-02-02T08:08:52.022Z,19.77
2019-02-02T08:11:18.973Z,21.60
2019-02-02T08:13:45.896Z,19.30
2019-02-02T08:16:12.845Z,19.03
2019-02-02T08:18:39.773Z,22.50
2019-02-02T08:21:06.713Z,20.40
2019-02-02T08:23:33.652Z,19.83
2019-02-02T08:26:00.577Z,22.60
2019-02-02T08:28:27.507Z,23.93
2019-02-02T08:30:54.488Z,20.50
2019-02-02T08:33:21.415Z,20.00
2019-02-02T08:35:48.353Z,23.37
2019-02-02T08:38:15.303Z,20.93
2019-02-02T08:40:42.291Z,19.40
2019-02-02T08:43:09.263Z,22.13
2019-02-02T08:45:36.193Z,20.00
2019-02-02T08:48:03.148Z,19.43
2019-02-02T08:50:33.621Z,21.37
2019-02-02T08:53:00.628Z,25.17
2019-02-02T08:55:27.590Z,21.67
2019-02-02T08:57:54.772Z,20.30
2019-02-02T09:00:21.730Z,21.07
2019-02-02T09:02:49.297Z,19.73
2019-02-02T09:05:17.536Z,19.10
2019-02-02T09:07:44.425Z,20.07
2019-02-02T09:10:14.119Z,20.33
2019-02-02T09:12:41.137Z,21.33
2019-02-02T09:15:09.436Z,19.27
2019-02-02T09:17:36.264Z,17.33
2019-02-02T09:20:04.582Z,18.00
2019-02-02T09:22:31.512Z,19.20
2019-02-02T09:24:58.436Z,18.07
2019-02-02T09:27:25.359Z,20.63
2019-02-02T09:29:52.313Z,20.20
2019-02-02T09:32:19.257Z,18.90
2019-02-02T09:34:46.188Z,18.63
2019-02-02T09:37:13.128Z,18.87
2019-02-02T09:39:40.056Z,21.67
2019-02-02T09:42:06.984Z,16.97
2019-02-02T09:44:33.914Z,15.93
2019-02-02T09:47:00.840Z,17.13
2019-02-02T09:49:27.794Z,16.30
2019-02-02T09:51:54.740Z,16.50
2019-02-02T09:54:26.700Z,15.13
2019-02-02T09:56:48.608Z,14.00
2019-02-02T09:59:17.165Z,13.87
2019-02-02T10:01:44.095Z,13.80
2019-02-02T10:04:11.026Z,14.30
2019-02-02T10:06:38.000Z,13.70
2019-02-02T10:09:07.074Z,13.07
2019-02-02T10:11:34.009Z,13.33
2019-02-02T10:14:00.957Z,12.67
2019-02-02T10:16:27.896Z,11.80
2019-02-02T10:18:54.845Z,10.80
2019-02-02T10:21:21.801Z,11.37
2019-02-02T10:23:48.738Z,10.93
2019-02-02T10:26:15.669Z,10.97
2019-02-02T10:28:42.632Z,10.30
2019-02-02T10:31:09.560Z,10.60
2019-02-02T10:33:36.492Z,10.40
2019-02-02T10:36:03.431Z,10.47
2019-02-02T10:38:30.359Z,10.67
2019-02-02T10:40:57.299Z,10.17
2019-02-02T10:43:24.249Z,9.83
2019-02-02T10:45:51.192Z,10.23
2019-02-02T10:48:18.116Z,10.00
2019-02-02T10:50:45.084Z,9.83
2019-02-02T10:53:12.016Z,9.78
2019-02-02T10:55:38.971Z,9.30
2019-02-02T10:58:06.044Z,9.75
2019-02-02T11:00:34.851Z,9.80
2019-02-02T11:03:01.816Z,9.73
2019-02-02T11:05:28.965Z,10.97
2019-02-02T11:07:55.874Z,11.27
2019-02-02T11:10:24.871Z,10.53
2019-02-02T11:12:51.983Z,10.77
2019-02-02T11:15:19.012Z,11.27
2019-02-02T11:17:45.997Z,11.03
2019-02-02T11:20:17.578Z,10.87
2019-02-02T11:22:42.280Z,11.83
2019-02-02T11:25:09.471Z,11.43
2019-02-02T11:27:36.418Z,11.23
2019-02-02T11:30:05.406Z,11.67
2019-02-02T11:32:32.341Z,11.83
2019-02-02T11:34:59.355Z,11.60
2019-02-02T11:37:26.279Z,13.13
2019-02-02T11:39:53.225Z,10.83
2019-02-02T11:42:20.173Z,11.57
2019-02-02T11:44:47.124Z,12.27
2019-02-02T11:47:14.052Z,11.63
2019-02-02T11:49:41.004Z,11.03
2019-02-02T11:52:07.927Z,11.87
2019-02-02T11:54:34.879Z,10.27
2019-02-02T11:57:01.833Z,11.00
2019-02-02T11:59:28.776Z,10.50
2019-02-02T12:01:56.391Z,11.57
2019-02-02T12:04:23.338Z,11.27
2019-02-02T12:06:50.293Z,11.10
2019-02-02T12:09:17.235Z,10.00
2019-02-02T12:11:44.182Z,10.90
2019-02-02T12:14:11.123Z,15.17
2019-02-02T12:16:38.072Z,15.60
2019-02-02T12:19:05.021Z,13.67
2019-02-02T12:21:31.957Z,14.57
2019-02-02T12:23:58.869Z,20.60
2019-02-02T12:26:25.816Z,17.47
2019-02-02T12:28:52.745Z,19.17
2019-02-02T12:31:19.688Z,20.13
2019-02-02T12:33:46.645Z,20.10
2019-02-02T12:36:13.581Z,16.97
2019-02-02T12:38:40.502Z,17.83
2019-02-02T12:41:07.451Z,17.83
2019-02-02T12:43:34.393Z,18.20
2019-02-02T12:46:01.320Z,17.83
2019-02-02T12:48:28.275Z,18.53
2019-02-02T12:50:55.227Z,17.87
2019-02-02T12:53:22.158Z,19.13
2019-02-02T12:55:49.138Z,17.23
2019-02-02T12:58:16.075Z,18.07
2019-02-02T13:00:44.432Z,19.03
2019-02-02T13:03:10.729Z,18.53
2019-02-02T13:05:39.265Z,18.53
2019-02-02T13:08:05.303Z,22.50
2019-02-02T13:10:31.562Z,19.93
2019-02-02T13:12:58.532Z,20.43
2019-02-02T13:15:25.463Z,18.97
2019-02-02T13:17:52.404Z,22.13
2019-02-02T13:20:19.335Z,17.90
2019-02-02T13:22:46.266Z,17.17
2019-02-02T13:25:15.124Z,16.40
2019-02-02T13:27:42.048Z,15.40
2019-02-02T13:30:13.292Z,15.23
2019-02-02T13:32:49.496Z,13.63
2019-02-02T13:35:09.631Z,11.00
2019-02-02T13:37:36.565Z,6.97
2019-02-02T13:40:04.977Z,24.80
2019-02-02T13:42:31.970Z,12.60
2019-02-02T13:44:58.892Z,8.30
2019-02-02T13:47:25.909Z,6.73
2019-02-02T13:49:52.838Z,7.50
2019-02-02T13:52:19.765Z,8.53
2019-02-02T13:54:46.727Z,6.57
2019-02-02T13:57:14.690Z,6.27
2019-02-02T13:59:41.622Z,6.80
2019-02-02T14:02:08.579Z,7.60
2019-02-02T14:04:37.011Z,7.70
2019-02-02T14:07:03.950Z,8.17
2019-02-02T14:09:30.901Z,7.80
2019-02-02T14:11:57.821Z,7.33
2019-02-02T14:14:24.752Z,5.90
2019-02-02T14:16:51.711Z,6.47
2019-02-02T14:19:18.660Z,8.33
2019-02-02T14:21:45.592Z,11.87
2019-02-02T14:24:12.555Z,9.73
2019-02-02T14:26:39.508Z,10.00
2019-02-02T14:29:06.445Z,9.23
2019-02-02T14:31:33.526Z,9.40
2019-02-02T14:34:00.343Z,8.43
2019-02-02T14:36:27.293Z,6.97
2019-02-02T14:38:54.288Z,8.73
2019-02-02T14:41:21.256Z,9.90
2019-02-02T14:43:48.206Z,10.80
2019-02-02T14:46:15.147Z,8.63
2019-02-02T14:48:42.099Z,7.87
2019-02-02T14:51:09.041Z,8.00
2019-02-02T14:53:36.065Z,8.27
2019-02-02T14:56:02.949Z,7.87
2019-02-02T14:58:29.887Z,8.87
2019-02-02T15:00:56.813Z,8.27
2019-02-02T15:03:25.738Z,9.70
2019-02-02T15:05:51.193Z,9.13
2019-02-02T15:08:18.153Z,9.63
2019-02-02T15:10:45.077Z,10.33
2019-02-02T15:13:12.011Z,13.37
2019-02-02T15:15:38.976Z,12.77
2019-02-02T15:18:05.931Z,12.50
2019-02-02T15:20:34.953Z,10.23
2019-02-02T15:23:01.936Z,9.90
2019-02-02T15:25:28.872Z,10.83
2019-02-02T15:27:55.834Z,9.93
2019-02-02T15:30:24.180Z,8.63
2019-02-02T15:32:51.129Z,8.77
2019-02-02T15:35:18.072Z,9.50
2019-02-02T15:37:45.019Z,9.33
2019-02-02T15:40:13.685Z,11.23
2019-02-02T15:42:40.622Z,11.00
2019-02-02T15:45:09.392Z,14.60
2019-02-02T15:47:36.323Z,13.03
2019-02-02T15:50:04.865Z,14.67
2019-02-02T15:52:31.832Z,13.17
2019-02-02T15:54:58.752Z,18.20
2019-02-02T15:57:25.699Z,21.63
2019-02-02T15:59:52.647Z,14.93
2019-02-02T16:02:19.580Z,13.83
2019-02-02T16:04:46.518Z,13.97
2019-02-02T16:07:16.079Z,13.37
2019-02-02T16:09:43.005Z,16.17
2019-02-02T16:12:09.956Z,16.13
2019-02-02T16:14:36.903Z,14.77
2019-02-02T16:17:03.849Z,13.93
2019-02-02T16:19:30.786Z,14.07
2019-02-02T16:21:57.753Z,13.63
2019-02-02T16:24:24.691Z,13.63
2019-02-02T16:26:51.614Z,15.57
2019-02-02T16:29:18.577Z,11.97
2019-02-02T16:31:45.523Z,12.50
2019-02-02T16:34:12.457Z,14.33
2019-02-02T16:36:39.412Z,33.70
2019-02-02T16:39:07.392Z,19.80
2019-02-02T16:41:34.321Z,14.93
2019-02-02T16:44:01.283Z,13.37
2019-02-02T16:46:28.211Z,12.97
2019-02-02T16:48:55.143Z,13.27
2019-02-02T16:51:22.089Z,13.23
2019-02-02T16:53:49.024Z,16.10
2019-02-02T16:56:15.951Z,16.50
2019-02-02T16:58:42.899Z,13.10
2019-02-02T17:01:09.831Z,13.57
2019-02-02T17:03:36.756Z,15.83
2019-02-02T17:06:03.716Z,12.90
2019-02-02T17:08:31.952Z,13.67
2019-02-02T17:10:58.942Z,13.03
2019-02-02T17:13:25.923Z,16.17
2019-02-02T17:15:52.859Z,12.93
2019-02-02T17:18:19.789Z,14.23
2019-02-02T17:20:46.769Z,13.80
2019-02-02T17:23:13.708Z,14.63
2019-02-02T17:25:40.646Z,15.13
2019-02-02T17:28:07.645Z,16.03
2019-02-02T17:30:34.573Z,15.30
2019-02-02T17:33:03.116Z,14.20
2019-02-02T17:35:30.073Z,15.03
2019-02-02T17:37:57.085Z,12.50
2019-02-02T17:40:25.688Z,13.40
2019-02-02T17:42:52.644Z,14.83
2019-02-02T17:45:19.604Z,15.07
2019-02-02T17:47:46.551Z,15.30
2019-02-02T17:50:15.548Z,14.70
2019-02-02T17:52:42.483Z,15.47
2019-02-02T17:55:09.441Z,15.37
2019-02-02T17:57:36.384Z,14.40
2019-02-02T18:00:04.854Z,17.73
2019-02-02T18:02:31.776Z,15.83
2019-02-02T18:04:58.724Z,14.30
2019-02-02T18:07:25.651Z,113.33
2019-02-02T18:09:53.781Z,87.70
2019-02-02T18:12:20.723Z,16.57
2019-02-02T18:14:47.651Z,17.90
2019-02-02T18:17:14.644Z,16.13
2019-02-02T18:19:41.534Z,16.40
2019-02-02T18:22:08.471Z,14.70
2019-02-02T18:24:35.404Z,15.17
2019-02-02T18:27:02.347Z,14.23
2019-02-02T18:29:29.344Z,15.67
2019-02-02T18:31:56.252Z,15.20
2019-02-02T18:34:23.206Z,15.60
2019-02-02T18:36:50.150Z,15.33
2019-02-02T18:39:17.072Z,16.87
2019-02-02T18:41:44.032Z,24.27
2019-02-02T18:44:10.957Z,17.53
2019-02-02T18:46:37.891Z,18.27
2019-02-02T18:49:04.846Z,15.53
2019-02-02T18:51:31.772Z,17.17
2019-02-02T18:53:58.704Z,15.67
2019-02-02T18:56:25.660Z,17.97
2019-02-02T18:58:52.596Z,19.00
2019-02-02T19:01:19.544Z,18.60
2019-02-02T19:03:46.508Z,18.17
2019-02-02T19:08:46.421Z,17.90
2019-02-02T19:11:13.588Z,17.27
2019-02-02T19:13:40.527Z,15.70
2019-02-02T19:16:07.465Z,15.43
2019-02-02T19:18:34.539Z,16.97
2019-02-02T19:21:01.488Z,19.33
2019-02-02T19:23:28.465Z,18.77
2019-02-02T19:25:55.423Z,20.47
2019-02-02T19:28:22.353Z,24.90
2019-02-02T19:30:49.289Z,95.20
2019-02-02T19:33:16.248Z,38.40
2019-02-02T19:35:43.174Z,22.20
2019-02-02T19:38:10.099Z,21.63
2019-02-02T19:40:37.049Z,22.53
2019-02-02T19:43:04.132Z,21.93
2019-02-02T19:45:31.030Z,20.53
2019-02-02T19:47:57.985Z,21.63
2019-02-02T19:50:25.075Z,21.33
2019-02-02T19:52:52.218Z,23.43
2019-02-02T19:55:19.155Z,21.90
2019-02-02T19:57:46.122Z,22.27
2019-02-02T20:00:16.462Z,21.53
2019-02-02T20:02:43.416Z,22.97
2019-02-02T20:05:10.359Z,23.50
2019-02-02T20:07:37.281Z,22.23
2019-02-02T20:10:05.375Z,25.40
2019-02-02T20:12:33.843Z,23.67
2019-02-02T20:15:00.772Z,26.00
2019-02-02T20:17:27.725Z,22.87
2019-02-02T20:19:54.668Z,25.83
2019-02-02T20:22:21.624Z,26.83
2019-02-02T20:24:48.585Z,30.47
2019-02-02T20:27:15.613Z,25.63
2019-02-02T20:29:42.576Z,26.53
2019-02-02T20:32:09.532Z,25.63
2019-02-02T20:34:36.448Z,23.57
2019-02-02T20:37:03.371Z,22.27
2019-02-02T20:39:30.328Z,23.33
2019-02-02T20:41:59.862Z,23.23
2019-02-02T20:44:24.263Z,23.13
2019-02-02T20:46:51.244Z,30.10
2019-02-02T20:49:18.221Z,25.57
2019-02-02T20:51:45.187Z,27.00
2019-02-02T20:54:12.126Z,27.40
2019-02-02T20:56:39.067Z,26.80
2019-02-02T20:59:06.067Z,26.17
2019-02-02T21:01:33.011Z,27.73
2019-02-02T21:03:59.943Z,27.87
2019-02-02T21:06:26.889Z,25.83
2019-02-02T21:08:53.840Z,24.60
2019-02-02T21:11:20.779Z,24.27
2019-02-02T21:13:49.088Z,24.33
2019-02-02T21:16:16.033Z,26.70
2019-02-02T21:18:42.976Z,24.07
2019-02-02T21:21:09.935Z,23.23
2019-02-02T21:23:36.892Z,24.20
2019-02-02T21:26:03.819Z,23.43
2019-02-02T21:28:31.769Z,23.17
2019-02-02T21:30:58.717Z,20.97
2019-02-02T21:33:25.651Z,23.50
2019-02-02T21:36:03.230Z,21.13
2019-02-02T21:38:19.565Z,21.73
2019-02-02T21:40:46.536Z,18.47
2019-02-02T21:43:13.502Z,20.57
2019-02-02T21:45:40.457Z,21.33
2019-02-02T21:48:07.407Z,23.13
2019-02-02T21:50:34.360Z,23.23
2019-02-02T21:53:01.339Z,22.37
2019-02-02T21:55:28.341Z,31.87
2019-02-02T21:57:55.263Z,24.53
2019-02-02T22:00:25.200Z,24.03
2019-02-02T22:02:52.157Z,19.07
2019-02-02T22:05:19.124Z,20.37
2019-02-02T22:07:47.449Z,20.13
2019-02-02T22:10:13.118Z,20.00
2019-02-02T22:12:40.091Z,19.80
2019-02-02T22:15:11.893Z,20.87
2019-02-02T22:17:38.840Z,20.13
2019-02-02T22:20:07.118Z,22.00
2019-02-02T22:22:34.089Z,20.63
2019-02-02T22:25:01.012Z,21.43
2019-02-02T22:27:27.947Z,21.77
2019-02-02T22:29:54.900Z,20.50
2019-02-02T22:32:21.828Z,19.63
2019-02-02T22:34:48.811Z,21.70
2019-02-02T22:37:15.784Z,21.27
2019-02-02T22:39:42.728Z,21.00
2019-02-02T22:42:09.659Z,19.57
2019-02-02T22:44:36.632Z,19.87
2019-02-02T22:47:03.588Z,20.93
2019-02-02T22:49:30.524Z,20.73
2019-02-02T22:51:59.886Z,21.80
2019-02-02T22:54:24.428Z,25.50
2019-02-02T22:56:51.368Z,47.87
2019-02-02T22:59:18.305Z,22.07
2019-02-02T23:01:49.937Z,19.47
2019-02-02T23:04:48.960Z,20.27
2019-02-02T23:07:37.355Z,21.57
2019-02-02T23:10:21.479Z,18.20
2019-02-02T23:12:57.889Z,20.63
2019-02-02T23:15:39.200Z,19.27
2019-02-02T23:18:06.147Z,20.93
2019-02-02T23:20:33.103Z,18.70
2019-02-02T23:23:00.049Z,19.13
2019-02-02T23:25:26.980Z,18.47
2019-02-02T23:27:53.923Z,19.90
2019-02-02T23:30:20.880Z,17.63
2019-02-02T23:32:47.820Z,18.53
2019-02-02T23:35:14.759Z,19.93
2019-02-02T23:37:41.702Z,17.20
2019-02-02T23:40:09.065Z,19.57
2019-02-02T23:42:35.991Z,17.70
2019-02-02T23:45:03.147Z,17.17
2019-02-02T23:47:30.084Z,18.80
2019-02-02T23:49:57.024Z,17.83
2019-02-02T23:52:23.984Z,18.37
2019-02-02T23:54:50.936Z,18.90
2019-02-02T23:57:17.884Z,18.50
2019-02-02T23:59:44.889Z,18.97
